Aérodrome :
LOGIN :

S'inscrire | Disclaimer

   EN    FR    IT 

 










Légende :    VFR   VFR Marginal   IFR   IFR Intensif   IFR Très Intensif
Visi : 
Plafond : 
>= 8 km
>= 3000ft
5 à 8 km
1000 à 3000 ft
1500m à 5 km
500 à 1000 ft
800 à 1500m
200 à 500 ft
< 800m
< 200 ft
Symboles :   Orages  Brouillard  Fortes neiges  Fortes précipitations  Vent > 20 kt
SIGMETs :   Divers  Orages  Givrage  Turbulence  Onde Orograph.  Cendres Volcan.







- Altitude de l'aérodrome : 297 ft
- Code IATA : UIP
- Voir les cartes d'approche


LFRQ - Quimper Pluguffan

DERNIER METAR :
  • 152230Z AUTO 26008KT 9999 FEW022/// SCT027/// BKN034/// ///TCU 10/08 Q1010 TEMPO SHRA

METARs EXPIRÉS :
  • 152200Z AUTO 26009KT 9999 SCT024 SCT031 BKN140 10/08 Q1010 TEMPO SHRA BKN018TCU
  • 152130Z AUTO 26010KT 9999 FEW021 09/07 Q1010 TEMPO SHRA BKN018TCU
  • 152100Z AUTO 28009KT 9999 FEW028/// SCT054/// BKN066/// ///TCU 09/07 Q1010 TEMPO SHRA
  • 152030Z AUTO 27010KT 220V290 8000 FEW023/// SCT052/// BKN074/// ///TCU 10/07 Q1010 TEMPO SHRA
  • 152000Z AUTO 27013KT 9999 BKN026 BKN046 11/08 Q1010 TEMPO SHRA BKN018TCU

TAF TAF LFRQ
Valide du 15 à 18h jusqu'au 16 à 18h UTC


151700Z 1518/1618 26012KT 9999 BKN025
TEMPO 1518/1618 SHRA BKN018TCU
TEMPO 1608/1615 23018G30KT 4000 SHRA BKN015TCU
PROB40
TEMPO 1609/1615 TSRA SCT013CB
Pas de NOTAMs connus pour ce terrain.



MET'MAP, la Météo Aéronautique d'un coup d'oeil ! - Copyright ORBIFLY Décembre 2007 - Disclaimer

ORBIFLY MET'MAP TEAM :

Programmation & Développement : Alexandra Zaïnal
Conception & Développement : Baudouin d'Aumeries
Co-Programmation & Développement : Marc-Olivier Méhu
Soutien technique & logistique : Manuel Goepfert

Contact : metmap@orbifly.com




SOURCES & CREDITS :

   NOAA